sensor_id;sensor_type;location;lat;lon;timestamp;P1;durP1;ratioP1;P2;durP2;ratioP2
75059;SDS011;63640;59.264;18.116;2024-02-23T00:00:09;29.92;;;12.70;;
75059;SDS011;63640;59.264;18.116;2024-02-23T00:02:36;31.70;;;14.20;;
75059;SDS011;63640;59.264;18.116;2024-02-23T00:05:02;39.50;;;14.45;;
75059;SDS011;63640;59.264;18.116;2024-02-23T00:07:28;36.83;;;14.93;;
75059;SDS011;63640;59.264;18.116;2024-02-23T00:09:54;37.55;;;15.20;;
75059;SDS011;63640;59.264;18.116;2024-02-23T00:12:19;34.10;;;14.10;;
75059;SDS011;63640;59.264;18.116;2024-02-23T00:14:45;32.03;;;13.75;;
75059;SDS011;63640;59.264;18.116;2024-02-23T00:17:10;37.60;;;14.05;;
75059;SDS011;63640;59.264;18.116;2024-02-23T00:19:36;32.00;;;15.02;;
75059;SDS011;63640;59.264;18.116;2024-02-23T00:22:02;31.25;;;12.90;;
75059;SDS011;63640;59.264;18.116;2024-02-23T00:24:28;38.28;;;16.63;;
75059;SDS011;63640;59.264;18.116;2024-02-23T00:26:54;38.78;;;16.48;;
75059;SDS011;63640;59.264;18.116;2024-02-23T00:29:19;34.75;;;14.45;;
75059;SDS011;63640;59.264;18.116;2024-02-23T00:31:46;38.17;;;16.55;;
75059;SDS011;63640;59.264;18.116;2024-02-23T00:34:12;40.30;;;16.65;;
75059;SDS011;63640;59.264;18.116;2024-02-23T00:36:41;34.58;;;14.68;;
75059;SDS011;63640;59.264;18.116;2024-02-23T00:39:07;40.75;;;15.88;;
75059;SDS011;63640;59.264;18.116;2024-02-23T00:41:33;38.97;;;15.45;;
75059;SDS011;63640;59.264;18.116;2024-02-23T00:43:59;40.00;;;16.52;;
75059;SDS011;63640;59.264;18.116;2024-02-23T00:46:25;36.88;;;15.75;;
75059;SDS011;63640;59.264;18.116;2024-02-23T00:48:50;45.78;;;18.25;;
75059;SDS011;63640;59.264;18.116;2024-02-23T00:51:16;58.17;;;18.88;;
75059;SDS011;63640;59.264;18.116;2024-02-23T00:53:41;36.72;;;16.20;;
75059;SDS011;63640;59.264;18.116;2024-02-23T00:56:07;49.42;;;18.65;;
75059;SDS011;63640;59.264;18.116;2024-02-23T00:58:32;41.63;;;17.17;;
75059;SDS011;63640;59.264;18.116;2024-02-23T01:00:58;41.40;;;15.00;;
75059;SDS011;63640;59.264;18.116;2024-02-23T01:03:24;44.10;;;16.13;;
75059;SDS011;63640;59.264;18.116;2024-02-23T01:05:49;34.30;;;16.23;;
75059;SDS011;63640;59.264;18.116;2024-02-23T01:08:15;41.75;;;17.25;;
75059;SDS011;63640;59.264;18.116;2024-02-23T01:10:40;50.35;;;17.83;;
75059;SDS011;63640;59.264;18.116;2024-02-23T01:13:06;52.05;;;16.38;;
75059;SDS011;63640;59.264;18.116;2024-02-23T01:15:32;38.47;;;15.30;;
75059;SDS011;63640;59.264;18.116;2024-02-23T01:17:57;41.50;;;15.52;;
75059;SDS011;63640;59.264;18.116;2024-02-23T01:20:23;41.22;;;15.82;;
75059;SDS011;63640;59.264;18.116;2024-02-23T01:22:48;29.73;;;12.27;;
75059;SDS011;63640;59.264;18.116;2024-02-23T01:25:14;27.90;;;13.02;;
75059;SDS011;63640;59.264;18.116;2024-02-23T01:27:41;35.63;;;14.10;;
75059;SDS011;63640;59.264;18.116;2024-02-23T01:30:06;37.25;;;16.58;;
75059;SDS011;63640;59.264;18.116;2024-02-23T01:32:32;37.13;;;14.55;;
75059;SDS011;63640;59.264;18.116;2024-02-23T01:34:58;35.58;;;14.77;;
75059;SDS011;63640;59.264;18.116;2024-02-23T01:37:23;36.75;;;15.70;;
75059;SDS011;63640;59.264;18.116;2024-02-23T01:39:49;55.42;;;15.25;;
75059;SDS011;63640;59.264;18.116;2024-02-23T01:42:14;30.27;;;13.60;;
75059;SDS011;63640;59.264;18.116;2024-02-23T01:44:40;32.75;;;14.77;;
75059;SDS011;63640;59.264;18.116;2024-02-23T01:47:05;36.38;;;14.25;;
75059;SDS011;63640;59.264;18.116;2024-02-23T01:49:31;38.92;;;15.90;;
75059;SDS011;63640;59.264;18.116;2024-02-23T01:51:58;39.78;;;15.57;;
75059;SDS011;63640;59.264;18.116;2024-02-23T01:54:25;41.97;;;16.83;;
75059;SDS011;63640;59.264;18.116;2024-02-23T01:56:51;37.78;;;16.67;;
75059;SDS011;63640;59.264;18.116;2024-02-23T01:59:17;41.95;;;17.95;;
75059;SDS011;63640;59.264;18.116;2024-02-23T02:01:42;148.70;;;22.65;;
75059;SDS011;63640;59.264;18.116;2024-02-23T02:04:08;42.33;;;16.90;;
75059;SDS011;63640;59.264;18.116;2024-02-23T02:06:33;40.35;;;17.77;;
75059;SDS011;63640;59.264;18.116;2024-02-23T02:08:59;41.97;;;17.60;;
75059;SDS011;63640;59.264;18.116;2024-02-23T02:11:24;46.15;;;17.30;;
75059;SDS011;63640;59.264;18.116;2024-02-23T02:13:50;32.13;;;14.73;;
75059;SDS011;63640;59.264;18.116;2024-02-23T02:16:15;35.35;;;14.70;;
75059;SDS011;63640;59.264;18.116;2024-02-23T02:18:41;32.45;;;14.45;;
75059;SDS011;63640;59.264;18.116;2024-02-23T02:21:06;34.53;;;14.32;;
75059;SDS011;63640;59.264;18.116;2024-02-23T02:23:32;36.47;;;15.88;;
75059;SDS011;63640;59.264;18.116;2024-02-23T02:25:58;33.70;;;14.15;;
75059;SDS011;63640;59.264;18.116;2024-02-23T02:28:24;77.28;;;18.98;;
75059;SDS011;63640;59.264;18.116;2024-02-23T02:30:50;42.00;;;14.60;;
75059;SDS011;63640;59.264;18.116;2024-02-23T02:33:17;32.63;;;13.68;;
75059;SDS011;63640;59.264;18.116;2024-02-23T02:35:43;33.80;;;15.50;;
75059;SDS011;63640;59.264;18.116;2024-02-23T02:38:10;33.53;;;14.10;;
75059;SDS011;63640;59.264;18.116;2024-02-23T02:40:35;32.05;;;15.23;;
75059;SDS011;63640;59.264;18.116;2024-02-23T02:43:01;32.20;;;16.48;;
75059;SDS011;63640;59.264;18.116;2024-02-23T02:45:26;42.47;;;17.33;;
75059;SDS011;63640;59.264;18.116;2024-02-23T02:47:52;39.75;;;16.27;;
75059;SDS011;63640;59.264;18.116;2024-02-23T02:50:17;35.67;;;15.35;;
75059;SDS011;63640;59.264;18.116;2024-02-23T02:52:43;44.13;;;16.98;;
75059;SDS011;63640;59.264;18.116;2024-02-23T02:55:08;36.95;;;17.30;;
75059;SDS011;63640;59.264;18.116;2024-02-23T02:57:34;104.10;;;21.85;;
75059;SDS011;63640;59.264;18.116;2024-02-23T03:00:01;39.78;;;16.92;;
75059;SDS011;63640;59.264;18.116;2024-02-23T03:02:33;34.33;;;14.73;;
75059;SDS011;63640;59.264;18.116;2024-02-23T03:04:59;32.63;;;14.00;;
75059;SDS011;63640;59.264;18.116;2024-02-23T03:07:24;24.20;;;12.40;;
75059;SDS011;63640;59.264;18.116;2024-02-23T03:09:50;30.08;;;13.52;;
75059;SDS011;63640;59.264;18.116;2024-02-23T03:12:16;40.30;;;14.13;;
75059;SDS011;63640;59.264;18.116;2024-02-23T03:14:42;38.63;;;15.38;;
75059;SDS011;63640;59.264;18.116;2024-02-23T03:17:08;33.53;;;14.55;;
75059;SDS011;63640;59.264;18.116;2024-02-23T03:19:34;25.50;;;12.70;;
75059;SDS011;63640;59.264;18.116;2024-02-23T03:22:00;24.20;;;12.50;;
75059;SDS011;63640;59.264;18.116;2024-02-23T03:24:25;30.88;;;11.77;;
75059;SDS011;63640;59.264;18.116;2024-02-23T03:26:51;23.00;;;10.93;;
75059;SDS011;63640;59.264;18.116;2024-02-23T03:29:17;23.33;;;11.30;;
75059;SDS011;63640;59.264;18.116;2024-02-23T03:31:42;25.92;;;12.32;;
75059;SDS011;63640;59.264;18.116;2024-02-23T03:34:08;23.15;;;10.95;;
75059;SDS011;63640;59.264;18.116;2024-02-23T03:36:33;26.30;;;11.45;;
75059;SDS011;63640;59.264;18.116;2024-02-23T03:39:00;32.75;;;13.65;;
75059;SDS011;63640;59.264;18.116;2024-02-23T03:41:25;31.85;;;14.50;;
75059;SDS011;63640;59.264;18.116;2024-02-23T03:43:51;39.80;;;15.18;;
75059;SDS011;63640;59.264;18.116;2024-02-23T03:46:17;33.80;;;14.48;;
75059;SDS011;63640;59.264;18.116;2024-02-23T03:48:42;36.30;;;12.77;;
75059;SDS011;63640;59.264;18.116;2024-02-23T03:51:08;41.58;;;15.82;;
75059;SDS011;63640;59.264;18.116;2024-02-23T03:53:34;44.75;;;15.88;;
75059;SDS011;63640;59.264;18.116;2024-02-23T03:56:00;32.58;;;14.52;;
75059;SDS011;63640;59.264;18.116;2024-02-23T03:58:25;40.55;;;16.77;;
75059;SDS011;63640;59.264;18.116;2024-02-23T04:00:51;57.85;;;17.80;;
75059;SDS011;63640;59.264;18.116;2024-02-23T04:03:17;53.28;;;17.27;;
75059;SDS011;63640;59.264;18.116;2024-02-23T04:05:42;47.33;;;17.38;;
75059;SDS011;63640;59.264;18.116;2024-02-23T04:08:08;296.63;;;32.17;;
75059;SDS011;63640;59.264;18.116;2024-02-23T04:10:33;42.38;;;15.90;;
75059;SDS011;63640;59.264;18.116;2024-02-23T04:12:59;37.00;;;14.52;;
75059;SDS011;63640;59.264;18.116;2024-02-23T04:15:25;40.28;;;16.13;;
75059;SDS011;63640;59.264;18.116;2024-02-23T04:17:51;37.83;;;15.32;;
75059;SDS011;63640;59.264;18.116;2024-02-23T04:20:16;43.67;;;16.88;;
75059;SDS011;63640;59.264;18.116;2024-02-23T04:22:42;44.95;;;16.67;;
75059;SDS011;63640;59.264;18.116;2024-02-23T04:25:07;48.63;;;17.48;;
75059;SDS011;63640;59.264;18.116;2024-02-23T04:27:33;45.88;;;16.35;;
75059;SDS011;63640;59.264;18.116;2024-02-23T04:29:58;37.17;;;13.20;;
75059;SDS011;63640;59.264;18.116;2024-02-23T04:32:24;33.20;;;11.15;;
75059;SDS011;63640;59.264;18.116;2024-02-23T04:34:49;36.42;;;14.80;;
75059;SDS011;63640;59.264;18.116;2024-02-23T04:37:15;22.77;;;9.55;;
75059;SDS011;63640;59.264;18.116;2024-02-23T04:39:43;20.17;;;9.60;;
75059;SDS011;63640;59.264;18.116;2024-02-23T04:42:08;23.10;;;11.07;;
75059;SDS011;63640;59.264;18.116;2024-02-23T04:44:34;18.40;;;9.07;;
75059;SDS011;63640;59.264;18.116;2024-02-23T04:47:00;16.38;;;9.35;;
75059;SDS011;63640;59.264;18.116;2024-02-23T04:49:26;13.63;;;6.25;;
75059;SDS011;63640;59.264;18.116;2024-02-23T04:51:52;16.67;;;7.93;;
75059;SDS011;63640;59.264;18.116;2024-02-23T04:54:17;18.15;;;8.60;;
75059;SDS011;63640;59.264;18.116;2024-02-23T04:56:43;17.23;;;7.65;;
75059;SDS011;63640;59.264;18.116;2024-02-23T04:59:08;18.75;;;8.30;;
75059;SDS011;63640;59.264;18.116;2024-02-23T05:01:37;558.00;;;51.92;;
75059;SDS011;63640;59.264;18.116;2024-02-23T05:04:03;18.88;;;8.90;;
75059;SDS011;63640;59.264;18.116;2024-02-23T05:06:29;19.02;;;9.02;;
75059;SDS011;63640;59.264;18.116;2024-02-23T05:08:55;17.73;;;8.63;;
75059;SDS011;63640;59.264;18.116;2024-02-23T05:11:20;19.38;;;8.52;;
75059;SDS011;63640;59.264;18.116;2024-02-23T05:13:46;23.10;;;9.23;;
75059;SDS011;63640;59.264;18.116;2024-02-23T05:16:13;22.65;;;8.45;;
75059;SDS011;63640;59.264;18.116;2024-02-23T05:18:39;22.08;;;8.75;;
75059;SDS011;63640;59.264;18.116;2024-02-23T05:21:05;25.17;;;10.05;;
75059;SDS011;63640;59.264;18.116;2024-02-23T05:23:31;167.50;;;21.70;;
75059;SDS011;63640;59.264;18.116;2024-02-23T05:25:56;24.95;;;10.30;;
75059;SDS011;63640;59.264;18.116;2024-02-23T05:28:22;22.75;;;9.50;;
75059;SDS011;63640;59.264;18.116;2024-02-23T05:30:47;45.97;;;11.02;;
75059;SDS011;63640;59.264;18.116;2024-02-23T05:33:12;30.65;;;11.35;;
75059;SDS011;63640;59.264;18.116;2024-02-23T05:35:38;67.32;;;13.15;;
75059;SDS011;63640;59.264;18.116;2024-02-23T05:38:03;27.13;;;11.27;;
75059;SDS011;63640;59.264;18.116;2024-02-23T05:40:31;40.80;;;11.40;;
75059;SDS011;63640;59.264;18.116;2024-02-23T05:42:57;25.25;;;10.02;;
75059;SDS011;63640;59.264;18.116;2024-02-23T05:45:23;45.22;;;13.85;;
75059;SDS011;63640;59.264;18.116;2024-02-23T05:47:49;39.88;;;11.85;;
75059;SDS011;63640;59.264;18.116;2024-02-23T05:50:14;35.33;;;11.80;;
75059;SDS011;63640;59.264;18.116;2024-02-23T05:52:40;30.10;;;11.40;;
75059;SDS011;63640;59.264;18.116;2024-02-23T05:55:05;33.63;;;12.10;;
75059;SDS011;63640;59.264;18.116;2024-02-23T05:57:31;198.18;;;23.27;;
75059;SDS011;63640;59.264;18.116;2024-02-23T05:59:56;25.77;;;10.38;;
75059;SDS011;63640;59.264;18.116;2024-02-23T06:02:22;37.50;;;13.73;;
75059;SDS011;63640;59.264;18.116;2024-02-23T06:04:48;41.10;;;13.77;;
75059;SDS011;63640;59.264;18.116;2024-02-23T06:07:13;27.98;;;10.57;;
75059;SDS011;63640;59.264;18.116;2024-02-23T06:09:42;31.45;;;11.95;;
75059;SDS011;63640;59.264;18.116;2024-02-23T06:12:08;28.92;;;12.95;;
75059;SDS011;63640;59.264;18.116;2024-02-23T06:14:34;21.73;;;10.77;;
75059;SDS011;63640;59.264;18.116;2024-02-23T06:17:00;25.90;;;10.80;;
75059;SDS011;63640;59.264;18.116;2024-02-23T06:19:26;30.58;;;12.88;;
75059;SDS011;63640;59.264;18.116;2024-02-23T06:21:51;48.15;;;15.35;;
75059;SDS011;63640;59.264;18.116;2024-02-23T06:24:17;42.10;;;15.70;;
75059;SDS011;63640;59.264;18.116;2024-02-23T06:26:42;41.30;;;15.73;;
75059;SDS011;63640;59.264;18.116;2024-02-23T06:29:08;41.10;;;15.35;;
75059;SDS011;63640;59.264;18.116;2024-02-23T06:31:36;38.30;;;14.90;;
75059;SDS011;63640;59.264;18.116;2024-02-23T06:34:03;47.60;;;17.30;;
75059;SDS011;63640;59.264;18.116;2024-02-23T06:36:29;40.10;;;16.52;;
75059;SDS011;63640;59.264;18.116;2024-02-23T06:38:54;40.63;;;17.83;;
75059;SDS011;63640;59.264;18.116;2024-02-23T06:41:20;43.13;;;16.48;;
75059;SDS011;63640;59.264;18.116;2024-02-23T06:43:45;39.60;;;15.90;;
75059;SDS011;63640;59.264;18.116;2024-02-23T06:46:11;41.35;;;17.55;;
75059;SDS011;63640;59.264;18.116;2024-02-23T06:48:36;36.42;;;17.20;;
75059;SDS011;63640;59.264;18.116;2024-02-23T06:51:02;36.00;;;16.95;;
75059;SDS011;63640;59.264;18.116;2024-02-23T06:53:29;35.08;;;15.43;;
75059;SDS011;63640;59.264;18.116;2024-02-23T06:55:54;30.00;;;13.73;;
75059;SDS011;63640;59.264;18.116;2024-02-23T06:58:20;33.63;;;15.68;;
75059;SDS011;63640;59.264;18.116;2024-02-23T07:00:45;32.55;;;15.57;;
75059;SDS011;63640;59.264;18.116;2024-02-23T07:03:11;34.75;;;15.82;;
75059;SDS011;63640;59.264;18.116;2024-02-23T07:05:37;31.05;;;13.98;;
75059;SDS011;63640;59.264;18.116;2024-02-23T07:08:02;794.85;;;72.85;;
75059;SDS011;63640;59.264;18.116;2024-02-23T07:10:28;31.42;;;15.60;;
75059;SDS011;63640;59.264;18.116;2024-02-23T07:12:53;33.08;;;14.88;;
75059;SDS011;63640;59.264;18.116;2024-02-23T07:15:20;25.33;;;13.85;;
75059;SDS011;63640;59.264;18.116;2024-02-23T07:17:46;26.15;;;12.65;;
75059;SDS011;63640;59.264;18.116;2024-02-23T07:20:12;24.95;;;12.63;;
75059;SDS011;63640;59.264;18.116;2024-02-23T07:22:38;24.52;;;12.10;;
75059;SDS011;63640;59.264;18.116;2024-02-23T07:25:04;25.42;;;12.35;;
75059;SDS011;63640;59.264;18.116;2024-02-23T07:27:30;21.58;;;11.75;;
75059;SDS011;63640;59.264;18.116;2024-02-23T07:29:56;22.30;;;11.25;;
75059;SDS011;63640;59.264;18.116;2024-02-23T07:32:22;21.65;;;11.88;;
75059;SDS011;63640;59.264;18.116;2024-02-23T07:34:48;17.77;;;9.85;;
75059;SDS011;63640;59.264;18.116;2024-02-23T07:37:14;16.58;;;9.38;;
75059;SDS011;63640;59.264;18.116;2024-02-23T07:39:40;18.33;;;10.50;;
75059;SDS011;63640;59.264;18.116;2024-02-23T07:42:05;18.02;;;9.70;;
75059;SDS011;63640;59.264;18.116;2024-02-23T07:44:31;20.35;;;9.48;;
75059;SDS011;63640;59.264;18.116;2024-02-23T07:46:58;16.98;;;9.30;;
75059;SDS011;63640;59.264;18.116;2024-02-23T07:49:24;17.15;;;9.45;;
75059;SDS011;63640;59.264;18.116;2024-02-23T07:51:50;13.70;;;8.15;;
75059;SDS011;63640;59.264;18.116;2024-02-23T07:54:15;25.55;;;10.98;;
75059;SDS011;63640;59.264;18.116;2024-02-23T07:56:41;18.00;;;8.75;;
75059;SDS011;63640;59.264;18.116;2024-02-23T07:59:06;17.42;;;9.63;;
75059;SDS011;63640;59.264;18.116;2024-02-23T08:01:32;16.55;;;9.38;;
75059;SDS011;63640;59.264;18.116;2024-02-23T08:03:58;20.27;;;10.27;;
75059;SDS011;63640;59.264;18.116;2024-02-23T08:06:23;23.98;;;12.07;;
75059;SDS011;63640;59.264;18.116;2024-02-23T08:08:49;23.83;;;12.13;;
75059;SDS011;63640;59.264;18.116;2024-02-23T08:11:14;23.23;;;11.77;;
75059;SDS011;63640;59.264;18.116;2024-02-23T08:13:42;26.15;;;12.52;;
75059;SDS011;63640;59.264;18.116;2024-02-23T08:16:07;27.27;;;12.77;;
75059;SDS011;63640;59.264;18.116;2024-02-23T08:18:33;23.38;;;12.02;;
75059;SDS011;63640;59.264;18.116;2024-02-23T08:20:58;19.48;;;11.73;;
75059;SDS011;63640;59.264;18.116;2024-02-23T08:23:27;137.80;;;19.65;;
75059;SDS011;63640;59.264;18.116;2024-02-23T08:25:52;25.85;;;12.65;;
75059;SDS011;63640;59.264;18.116;2024-02-23T08:28:18;25.17;;;12.48;;
75059;SDS011;63640;59.264;18.116;2024-02-23T08:30:44;29.55;;;13.73;;
75059;SDS011;63640;59.264;18.116;2024-02-23T08:33:09;23.77;;;12.68;;
75059;SDS011;63640;59.264;18.116;2024-02-23T08:35:35;28.23;;;12.68;;
75059;SDS011;63640;59.264;18.116;2024-02-23T08:38:00;20.13;;;12.23;;
75059;SDS011;63640;59.264;18.116;2024-02-23T08:40:26;18.75;;;9.38;;
75059;SDS011;63640;59.264;18.116;2024-02-23T08:42:51;20.52;;;9.45;;
75059;SDS011;63640;59.264;18.116;2024-02-23T08:45:17;18.75;;;10.02;;
75059;SDS011;63640;59.264;18.116;2024-02-23T08:47:43;20.95;;;10.13;;
75059;SDS011;63640;59.264;18.116;2024-02-23T08:50:08;14.98;;;8.32;;
75059;SDS011;63640;59.264;18.116;2024-02-23T08:52:34;17.15;;;9.63;;
75059;SDS011;63640;59.264;18.116;2024-02-23T08:55:00;18.08;;;10.00;;
75059;SDS011;63640;59.264;18.116;2024-02-23T08:57:25;17.52;;;9.25;;
75059;SDS011;63640;59.264;18.116;2024-02-23T08:59:52;17.80;;;8.85;;
75059;SDS011;63640;59.264;18.116;2024-02-23T09:02:18;15.18;;;8.23;;
75059;SDS011;63640;59.264;18.116;2024-02-23T09:04:44;18.13;;;8.57;;
75059;SDS011;63640;59.264;18.116;2024-02-23T09:07:11;19.05;;;8.95;;
75059;SDS011;63640;59.264;18.116;2024-02-23T09:09:37;19.33;;;10.32;;
75059;SDS011;63640;59.264;18.116;2024-02-23T09:12:02;19.50;;;9.68;;
75059;SDS011;63640;59.264;18.116;2024-02-23T09:14:28;17.38;;;10.63;;
75059;SDS011;63640;59.264;18.116;2024-02-23T09:16:54;20.08;;;9.98;;
75059;SDS011;63640;59.264;18.116;2024-02-23T09:19:20;19.55;;;10.25;;
75059;SDS011;63640;59.264;18.116;2024-02-23T09:21:45;23.00;;;11.10;;
75059;SDS011;63640;59.264;18.116;2024-02-23T09:24:11;24.63;;;10.98;;
75059;SDS011;63640;59.264;18.116;2024-02-23T09:26:37;20.48;;;10.15;;
75059;SDS011;63640;59.264;18.116;2024-02-23T09:29:04;18.35;;;8.75;;
75059;SDS011;63640;59.264;18.116;2024-02-23T09:31:30;16.77;;;9.40;;
75059;SDS011;63640;59.264;18.116;2024-02-23T09:33:56;16.88;;;8.88;;
75059;SDS011;63640;59.264;18.116;2024-02-23T09:36:22;17.05;;;8.45;;
75059;SDS011;63640;59.264;18.116;2024-02-23T09:38:48;13.02;;;7.38;;
75059;SDS011;63640;59.264;18.116;2024-02-23T09:41:22;15.50;;;7.65;;
75059;SDS011;63640;59.264;18.116;2024-02-23T09:43:49;16.20;;;7.35;;
75059;SDS011;63640;59.264;18.116;2024-02-23T09:46:17;14.13;;;7.43;;
75059;SDS011;63640;59.264;18.116;2024-02-23T09:48:43;14.23;;;6.68;;
75059;SDS011;63640;59.264;18.116;2024-02-23T09:51:10;14.48;;;7.22;;
75059;SDS011;63640;59.264;18.116;2024-02-23T09:53:36;16.00;;;7.28;;
75059;SDS011;63640;59.264;18.116;2024-02-23T09:56:02;16.23;;;6.10;;
75059;SDS011;63640;59.264;18.116;2024-02-23T09:58:29;14.55;;;7.13;;
75059;SDS011;63640;59.264;18.116;2024-02-23T10:00:59;11.80;;;6.55;;
75059;SDS011;63640;59.264;18.116;2024-02-23T10:03:27;12.35;;;5.75;;
75059;SDS011;63640;59.264;18.116;2024-02-23T10:05:56;11.50;;;5.90;;
75059;SDS011;63640;59.264;18.116;2024-02-23T10:08:22;12.32;;;6.15;;
75059;SDS011;63640;59.264;18.116;2024-02-23T10:10:47;9.48;;;5.25;;
75059;SDS011;63640;59.264;18.116;2024-02-23T10:13:18;10.90;;;5.28;;
75059;SDS011;63640;59.264;18.116;2024-02-23T10:15:46;13.27;;;6.13;;
75059;SDS011;63640;59.264;18.116;2024-02-23T10:18:12;13.20;;;5.85;;
75059;SDS011;63640;59.264;18.116;2024-02-23T10:20:37;11.13;;;5.05;;
75059;SDS011;63640;59.264;18.116;2024-02-23T10:23:04;12.02;;;4.88;;
75059;SDS011;63640;59.264;18.116;2024-02-23T10:25:29;9.40;;;4.38;;
75059;SDS011;63640;59.264;18.116;2024-02-23T10:27:55;11.13;;;4.38;;
75059;SDS011;63640;59.264;18.116;2024-02-23T10:30:20;10.63;;;3.80;;
75059;SDS011;63640;59.264;18.116;2024-02-23T10:32:46;9.40;;;4.07;;
75059;SDS011;63640;59.264;18.116;2024-02-23T10:35:15;9.32;;;3.83;;
75059;SDS011;63640;59.264;18.116;2024-02-23T10:37:44;9.27;;;3.03;;
75059;SDS011;63640;59.264;18.116;2024-02-23T10:40:15;10.80;;;3.92;;
75059;SDS011;63640;59.264;18.116;2024-02-23T10:42:43;8.15;;;3.83;;
75059;SDS011;63640;59.264;18.116;2024-02-23T10:47:38;9.18;;;3.15;;
75059;SDS011;63640;59.264;18.116;2024-02-23T10:50:03;10.15;;;3.33;;
75059;SDS011;63640;59.264;18.116;2024-02-23T10:52:30;8.95;;;3.35;;
75059;SDS011;63640;59.264;18.116;2024-02-23T10:54:56;9.40;;;3.08;;
75059;SDS011;63640;59.264;18.116;2024-02-23T10:57:22;6.93;;;2.60;;
75059;SDS011;63640;59.264;18.116;2024-02-23T10:59:48;7.40;;;2.28;;
75059;SDS011;63640;59.264;18.116;2024-02-23T11:02:18;6.97;;;2.50;;
75059;SDS011;63640;59.264;18.116;2024-02-23T11:07:18;7.00;;;2.30;;
75059;SDS011;63640;59.264;18.116;2024-02-23T11:12:40;8.70;;;2.03;;
75059;SDS011;63640;59.264;18.116;2024-02-23T11:15:05;5.68;;;1.67;;
75059;SDS011;63640;59.264;18.116;2024-02-23T11:17:31;6.70;;;2.35;;
75059;SDS011;63640;59.264;18.116;2024-02-23T11:19:57;5.20;;;1.83;;
75059;SDS011;63640;59.264;18.116;2024-02-23T11:22:27;6.18;;;1.63;;
75059;SDS011;63640;59.264;18.116;2024-02-23T11:24:59;6.38;;;1.80;;
75059;SDS011;63640;59.264;18.116;2024-02-23T11:27:32;5.90;;;1.50;;
75059;SDS011;63640;59.264;18.116;2024-02-23T11:30:02;3.85;;;1.13;;
75059;SDS011;63640;59.264;18.116;2024-02-23T11:33:02;2.40;;;0.93;;
75059;SDS011;63640;59.264;18.116;2024-02-23T11:35:25;3.25;;;0.90;;
75059;SDS011;63640;59.264;18.116;2024-02-23T11:37:54;6.55;;;1.48;;
75059;SDS011;63640;59.264;18.116;2024-02-23T11:40:28;4.40;;;1.33;;
75059;SDS011;63640;59.264;18.116;2024-02-23T11:42:55;5.40;;;1.30;;
75059;SDS011;63640;59.264;18.116;2024-02-23T11:45:21;3.20;;;0.95;;
75059;SDS011;63640;59.264;18.116;2024-02-23T11:47:47;4.65;;;1.13;;
75059;SDS011;63640;59.264;18.116;2024-02-23T11:50:13;4.05;;;1.15;;
75059;SDS011;63640;59.264;18.116;2024-02-23T11:52:39;3.65;;;0.88;;
75059;SDS011;63640;59.264;18.116;2024-02-23T11:55:05;4.32;;;1.42;;
75059;SDS011;63640;59.264;18.116;2024-02-23T11:57:34;3.03;;;0.70;;
75059;SDS011;63640;59.264;18.116;2024-02-23T12:00:01;4.03;;;0.77;;
75059;SDS011;63640;59.264;18.116;2024-02-23T12:02:28;3.50;;;1.08;;
75059;SDS011;63640;59.264;18.116;2024-02-23T12:04:53;4.65;;;0.90;;
75059;SDS011;63640;59.264;18.116;2024-02-23T12:07:19;4.78;;;0.70;;
75059;SDS011;63640;59.264;18.116;2024-02-23T12:09:46;2.92;;;0.55;;
75059;SDS011;63640;59.264;18.116;2024-02-23T12:12:11;2.95;;;0.60;;
75059;SDS011;63640;59.264;18.116;2024-02-23T12:14:39;4.50;;;0.85;;
75059;SDS011;63640;59.264;18.116;2024-02-23T12:17:05;6.28;;;0.90;;
75059;SDS011;63640;59.264;18.116;2024-02-23T12:19:37;4.05;;;0.68;;
75059;SDS011;63640;59.264;18.116;2024-02-23T12:22:06;3.83;;;0.70;;
75059;SDS011;63640;59.264;18.116;2024-02-23T12:24:31;5.15;;;1.05;;
75059;SDS011;63640;59.264;18.116;2024-02-23T12:26:57;4.65;;;0.70;;
75059;SDS011;63640;59.264;18.116;2024-02-23T12:29:22;3.92;;;0.90;;
75059;SDS011;63640;59.264;18.116;2024-02-23T12:31:48;5.78;;;1.27;;
75059;SDS011;63640;59.264;18.116;2024-02-23T12:34:14;2.60;;;0.80;;
75059;SDS011;63640;59.264;18.116;2024-02-23T12:36:39;3.03;;;0.90;;
75059;SDS011;63640;59.264;18.116;2024-02-23T12:39:05;4.15;;;0.73;;
75059;SDS011;63640;59.264;18.116;2024-02-23T12:41:31;7.07;;;1.05;;
75059;SDS011;63640;59.264;18.116;2024-02-23T12:43:57;3.50;;;0.73;;
75059;SDS011;63640;59.264;18.116;2024-02-23T12:46:22;4.28;;;0.68;;
75059;SDS011;63640;59.264;18.116;2024-02-23T12:48:49;3.72;;;0.75;;
75059;SDS011;63640;59.264;18.116;2024-02-23T12:51:15;5.78;;;0.95;;
75059;SDS011;63640;59.264;18.116;2024-02-23T12:53:41;7.18;;;1.10;;
75059;SDS011;63640;59.264;18.116;2024-02-23T12:56:10;3.10;;;0.65;;
75059;SDS011;63640;59.264;18.116;2024-02-23T12:58:37;5.13;;;1.13;;
75059;SDS011;63640;59.264;18.116;2024-02-23T13:01:04;5.07;;;0.80;;
75059;SDS011;63640;59.264;18.116;2024-02-23T13:03:31;5.75;;;1.23;;
75059;SDS011;63640;59.264;18.116;2024-02-23T13:05:57;5.20;;;1.00;;
75059;SDS011;63640;59.264;18.116;2024-02-23T13:08:22;4.97;;;0.90;;
75059;SDS011;63640;59.264;18.116;2024-02-23T13:10:51;4.72;;;0.90;;
75059;SDS011;63640;59.264;18.116;2024-02-23T13:13:18;6.55;;;1.05;;
75059;SDS011;63640;59.264;18.116;2024-02-23T13:15:44;7.38;;;1.23;;
75059;SDS011;63640;59.264;18.116;2024-02-23T13:18:10;4.38;;;1.00;;
75059;SDS011;63640;59.264;18.116;2024-02-23T13:20:39;8.25;;;1.30;;
75059;SDS011;63640;59.264;18.116;2024-02-23T13:23:08;5.38;;;1.10;;
75059;SDS011;63640;59.264;18.116;2024-02-23T13:25:35;6.90;;;1.23;;
75059;SDS011;63640;59.264;18.116;2024-02-23T13:28:01;4.60;;;0.82;;
75059;SDS011;63640;59.264;18.116;2024-02-23T13:30:26;5.35;;;1.17;;
75059;SDS011;63640;59.264;18.116;2024-02-23T13:32:52;6.15;;;0.85;;
75059;SDS011;63640;59.264;18.116;2024-02-23T13:35:18;9.15;;;1.48;;
75059;SDS011;63640;59.264;18.116;2024-02-23T13:37:44;4.40;;;0.88;;
75059;SDS011;63640;59.264;18.116;2024-02-23T13:40:09;6.22;;;1.15;;
75059;SDS011;63640;59.264;18.116;2024-02-23T13:42:35;5.45;;;1.15;;
75059;SDS011;63640;59.264;18.116;2024-02-23T13:45:03;8.10;;;1.00;;
75059;SDS011;63640;59.264;18.116;2024-02-23T13:47:32;3.53;;;0.80;;
75059;SDS011;63640;59.264;18.116;2024-02-23T13:49:59;8.80;;;1.10;;
75059;SDS011;63640;59.264;18.116;2024-02-23T13:52:24;7.60;;;1.42;;
75059;SDS011;63640;59.264;18.116;2024-02-23T13:54:49;3.05;;;0.90;;
75059;SDS011;63640;59.264;18.116;2024-02-23T13:57:15;5.93;;;1.10;;
75059;SDS011;63640;59.264;18.116;2024-02-23T13:59:40;4.88;;;1.00;;
75059;SDS011;63640;59.264;18.116;2024-02-23T14:02:06;4.53;;;1.08;;
75059;SDS011;63640;59.264;18.116;2024-02-23T14:04:32;5.75;;;0.85;;
75059;SDS011;63640;59.264;18.116;2024-02-23T14:06:57;4.05;;;1.02;;
75059;SDS011;63640;59.264;18.116;2024-02-23T14:09:22;7.72;;;1.20;;
75059;SDS011;63640;59.264;18.116;2024-02-23T14:11:48;7.60;;;1.23;;
75059;SDS011;63640;59.264;18.116;2024-02-23T14:14:13;4.97;;;1.20;;
75059;SDS011;63640;59.264;18.116;2024-02-23T14:16:40;7.63;;;1.58;;
75059;SDS011;63640;59.264;18.116;2024-02-23T14:19:05;4.72;;;1.40;;